TimeCST,TemperatureF,Dew PointF,Humidity,Sea Level PressureIn,VisibilityMPH,Wind Direction,Wind SpeedMPH,Gust SpeedMPH,PrecipitationIn,Events,Conditions,WindDirDegrees,DateUTC
12:53 AM,25.0,21.9,88,30.35,9.0,NW,18.4,-,0.00,Snow,Light Snow,320,2013-01-03 06:53:00
1:08 AM,24.8,21.2,86,30.27,9.0,NW,16.1,-,0.00,,Overcast,320,2013-01-03 07:08:00
1:53 AM,25.0,21.0,85,30.37,10.0,NW,15.0,-,0.00,,Overcast,320,2013-01-03 07:53:00
2:10 AM,24.8,21.2,86,30.30,10.0,North,11.5,-,N/A,,Overcast,360,2013-01-03 08:10:00
2:19 AM,23.0,21.2,93,30.30,9.0,North,11.5,-,N/A,,Overcast,360,2013-01-03 08:19:00
2:53 AM,21.9,19.9,92,30.39,10.0,North,9.2,-,N/A,,Overcast,360,2013-01-03 08:53:00
3:53 AM,21.0,18.0,88,30.39,8.0,NNW,5.8,-,N/A,,Overcast,340,2013-01-03 09:53:00
4:19 AM,19.4,15.8,86,30.30,10.0,WNW,6.9,-,N/A,,Overcast,300,2013-01-03 10:19:00
4:53 AM,19.0,14.0,81,30.39,10.0,WNW,12.7,-,N/A,,Overcast,290,2013-01-03 10:53:00
5:28 AM,19.4,14.0,80,30.30,10.0,West,8.1,-,N/A,,Overcast,280,2013-01-03 11:28:00
5:53 AM,19.0,14.0,81,30.40,10.0,WNW,8.1,-,N/A,,Overcast,300,2013-01-03 11:53:00
6:23 AM,15.8,10.4,79,30.32,10.0,West,6.9,-,N/A,,Overcast,260,2013-01-03 12:23:00
6:53 AM,17.1,12.9,84,30.41,10.0,WNW,6.9,-,N/A,,Overcast,300,2013-01-03 12:53:00
7:53 AM,19.9,14.0,78,30.40,10.0,West,6.9,-,N/A,,Overcast,280,2013-01-03 13:53:00
8:02 AM,19.4,14.0,80,30.31,10.0,West,6.9,-,N/A,,Overcast,280,2013-01-03 14:02:00
8:53 AM,21.0,15.1,78,30.39,10.0,West,9.2,-,N/A,,Overcast,270,2013-01-03 14:53:00
9:53 AM,23.0,16.0,74,30.38,10.0,West,9.2,-,N/A,,Overcast,270,2013-01-03 15:53:00
10:29 AM,23.0,15.8,74,30.30,10.0,WSW,6.9,-,N/A,,Scattered Clouds,250,2013-01-03 16:29:00
10:53 AM,24.1,16.0,71,30.38,10.0,WSW,10.4,-,N/A,,Clear,240,2013-01-03 16:53:00
11:53 AM,26.1,18.0,71,30.37,10.0,West,12.7,-,N/A,,Clear,260,2013-01-03 17:53:00
12:53 PM,28.0,18.0,66,30.34,10.0,West,12.7,-,N/A,,Clear,280,2013-01-03 18:53:00
1:53 PM,28.9,18.0,64,30.30,10.0,WSW,11.5,-,N/A,,Clear,240,2013-01-03 19:53:00
2:53 PM,28.9,17.1,61,30.28,10.0,SW,13.8,-,N/A,,Clear,230,2013-01-03 20:53:00
3:53 PM,28.0,17.1,63,30.30,10.0,WSW,12.7,-,N/A,,Clear,250,2013-01-03 21:53:00
4:53 PM,26.1,17.1,69,30.31,10.0,SW,8.1,-,N/A,,Clear,230,2013-01-03 22:53:00
5:53 PM,24.1,15.1,69,30.30,10.0,SW,4.6,86.3,N/A,,Clear,230,2013-01-03 23:53:00
6:53 PM,21.9,14.0,72,30.30,10.0,SSW,10.4,-,N/A,,Clear,210,2013-01-04 00:53:00
7:53 PM,21.0,12.9,71,30.29,10.0,SSW,10.4,-,N/A,,Clear,210,2013-01-04 01:53:00
8:53 PM,19.0,10.9,71,30.27,10.0,SW,11.5,-,N/A,,Clear,220,2013-01-04 02:53:00
9:53 PM,18.0,10.0,71,30.26,10.0,SW,9.2,-,N/A,,Clear,220,2013-01-04 03:53:00
10:53 PM,18.0,9.0,68,30.24,10.0,SW,8.1,-,N/A,,Clear,230,2013-01-04 04:53:00
11:53 PM,19.0,9.0,65,30.23,10.0,SW,9.2,-,N/A,,Clear,230,2013-01-04 05:53:00